createdAt,value
2022-10-11T00:01:12.073Z,11.68
2022-10-11T00:04:14.743Z,12.63
2022-10-11T00:07:18.574Z,9.90
2022-10-11T00:10:21.309Z,11.82
2022-10-11T00:13:23.575Z,14.27
2022-10-11T00:16:26.587Z,10.63
2022-10-11T00:19:28.833Z,8.73
2022-10-11T00:22:31.326Z,15.88
2022-10-11T00:25:33.611Z,15.43
2022-10-11T00:28:36.756Z,12.93
2022-10-11T00:31:40.412Z,31.00
2022-10-11T00:34:42.996Z,31.52
2022-10-11T00:37:45.260Z,26.40
2022-10-11T00:40:47.844Z,17.27
2022-10-11T00:44:12.225Z,22.73
2022-10-11T00:47:24.575Z,18.50
2022-10-11T00:50:29.629Z,15.35
2022-10-11T00:53:33.892Z,10.25
2022-10-11T00:56:38.778Z,15.32
2022-10-11T00:59:45.562Z,10.60
2022-10-11T01:02:48.251Z,8.40
2022-10-11T01:05:50.961Z,9.10
2022-10-11T01:08:53.337Z,9.23
2022-10-11T01:11:59.390Z,10.57
2022-10-11T01:15:16.991Z,8.38
2022-10-11T01:18:34.527Z,9.30
2022-10-11T01:21:52.178Z,8.90
2022-10-11T01:25:25.489Z,8.80
2022-10-11T01:28:39.735Z,13.10
2022-10-11T01:31:58.566Z,9.57
2022-10-11T01:35:42.948Z,13.88
2022-10-11T01:38:53.302Z,10.98
2022-10-11T01:42:00.079Z,11.05
2022-10-11T01:45:02.859Z,9.15
2022-10-11T01:48:10.968Z,10.45
2022-10-11T01:51:13.774Z,8.15
2022-10-11T01:54:24.871Z,13.73
2022-10-11T01:57:56.156Z,9.05
2022-10-11T02:01:08.291Z,8.57
2022-10-11T02:04:39.947Z,10.65
2022-10-11T02:08:11.022Z,10.73
2022-10-11T02:11:24.798Z,8.93
2022-10-11T02:14:30.891Z,13.05
2022-10-11T02:17:50.243Z,13.70
2022-10-11T02:20:53.807Z,9.60
2022-10-11T02:24:10.831Z,11.52
2022-10-11T02:27:15.239Z,9.07
2022-10-11T02:30:18.098Z,11.07
2022-10-11T02:34:14.099Z,10.77
2022-10-11T02:37:27.387Z,12.27
2022-10-11T02:40:33.398Z,11.45
2022-10-11T02:43:45.011Z,10.88
2022-10-11T02:46:50.311Z,10.60
2022-10-11T02:49:53.286Z,8.45
2022-10-11T02:52:55.505Z,9.50
2022-10-11T02:55:57.983Z,10.38
2022-10-11T02:59:00.255Z,9.10
2022-10-11T03:02:02.813Z,10.07
2022-10-11T03:05:05.429Z,13.18
2022-10-11T03:08:09.979Z,10.65
2022-10-11T03:11:12.188Z,7.65
2022-10-11T03:14:14.697Z,10.95
2022-10-11T03:17:35.588Z,12.73
2022-10-11T03:20:39.279Z,12.75
2022-10-11T03:23:42.749Z,12.15
2022-10-11T03:26:45.268Z,10.05
2022-10-11T03:29:47.476Z,11.80
2022-10-11T03:32:50.128Z,9.70
2022-10-11T03:35:52.316Z,10.05
2022-10-11T03:38:54.836Z,10.18
2022-10-11T03:41:57.125Z,9.98
2022-10-11T03:45:01.733Z,12.23
2022-10-11T03:48:04.563Z,8.50
2022-10-11T03:51:07.169Z,12.33
2022-10-11T03:54:09.552Z,13.73
2022-10-11T03:57:12.064Z,8.00
2022-10-11T04:00:14.412Z,12.65
2022-10-11T04:03:20.069Z,8.02
2022-10-11T04:06:22.271Z,15.25
2022-10-11T04:09:24.731Z,9.32
2022-10-11T04:12:26.988Z,9.32
2022-10-11T04:15:29.440Z,11.65
2022-10-11T04:18:31.680Z,7.47
2022-10-11T04:21:34.405Z,11.98
2022-10-11T04:24:36.699Z,10.35
2022-10-11T04:27:39.393Z,14.73
2022-10-11T04:30:41.677Z,10.93
2022-10-11T04:33:44.219Z,9.40
2022-10-11T04:36:49.873Z,10.82
2022-10-11T04:39:52.664Z,10.48
2022-10-11T04:42:54.901Z,10.23
2022-10-11T04:45:57.737Z,11.05
2022-10-11T04:49:00.193Z,9.35
2022-10-11T04:52:02.865Z,9.02
2022-10-11T04:55:05.640Z,11.95
2022-10-11T04:58:08.164Z,11.03
2022-10-11T05:01:11.309Z,10.45
2022-10-11T05:04:13.812Z,12.68
2022-10-11T05:07:16.496Z,11.20
2022-10-11T05:10:19.010Z,12.95
2022-10-11T05:13:21.308Z,14.80
2022-10-11T05:16:24.897Z,11.50
2022-10-11T05:19:27.217Z,7.18
2022-10-11T05:22:30.215Z,9.68
2022-10-11T05:25:32.432Z,9.18
2022-10-11T05:28:35.086Z,13.75
2022-10-11T05:31:37.348Z,11.18
2022-10-11T05:34:39.849Z,15.57
2022-10-11T05:37:44.760Z,16.20
2022-10-11T05:40:47.479Z,15.43
2022-10-11T05:43:49.796Z,22.50
2022-10-11T05:46:53.460Z,12.70
2022-10-11T05:49:55.724Z,13.55
2022-10-11T05:52:58.394Z,9.75
2022-10-11T05:56:01.166Z,11.43
2022-10-11T05:59:04.833Z,9.57
2022-10-11T06:02:07.456Z,18.40
2022-10-11T06:05:09.945Z,13.05
2022-10-11T06:08:12.167Z,26.00
2022-10-11T06:11:17.587Z,19.12
2022-10-11T06:14:20.072Z,13.40
2022-10-11T06:17:23.850Z,23.90
2022-10-11T06:20:27.068Z,11.95
2022-10-11T06:23:29.930Z,14.82
2022-10-11T06:26:32.600Z,11.85
2022-10-11T06:29:36.381Z,11.30
2022-10-11T06:32:38.637Z,10.18
2022-10-11T06:35:43.751Z,22.20
2022-10-11T06:38:46.226Z,9.32
2022-10-11T06:41:48.896Z,12.43
2022-10-11T06:44:57.067Z,8.35
2022-10-11T06:47:59.700Z,11.18
2022-10-11T06:51:01.977Z,11.10
2022-10-11T06:54:06.471Z,9.07
2022-10-11T06:57:08.848Z,8.43
2022-10-11T07:00:12.864Z,8.20
2022-10-11T07:03:15.201Z,10.70
2022-10-11T07:06:23.312Z,11.38
2022-10-11T07:09:25.576Z,12.18
2022-10-11T07:12:28.929Z,10.38
2022-10-11T07:15:32.141Z,20.98
2022-10-11T07:18:35.123Z,11.68
2022-10-11T07:21:37.332Z,9.82
2022-10-11T07:24:39.979Z,10.70
2022-10-11T07:27:42.201Z,11.55
2022-10-11T07:30:45.124Z,10.60
2022-10-11T07:33:47.621Z,10.65
2022-10-11T07:36:50.237Z,10.13
2022-10-11T07:39:52.464Z,20.02
2022-10-11T07:42:56.910Z,10.23
2022-10-11T07:46:04.443Z,11.95
2022-10-11T07:49:07.967Z,15.68
2022-10-11T07:52:10.186Z,9.63
2022-10-11T07:55:12.712Z,6.47
2022-10-11T07:58:14.979Z,8.30
2022-10-11T08:01:18.125Z,8.75
2022-10-11T08:04:21.663Z,9.27
2022-10-11T08:07:24.541Z,11.35
2022-10-11T08:10:27.816Z,16.33
2022-10-11T08:13:30.143Z,11.20
2022-10-11T08:16:33.892Z,11.02
2022-10-11T08:22:39.254Z,7.65
2022-10-11T08:25:44.592Z,19.40
2022-10-11T08:28:47.197Z,13.20
2022-10-11T08:31:49.462Z,10.05
2022-10-11T08:34:53.767Z,9.27
2022-10-11T08:37:55.943Z,8.88
2022-10-11T08:40:59.683Z,7.57
2022-10-11T08:44:20.143Z,9.38
2022-10-11T08:47:30.761Z,19.35
2022-10-11T08:50:33.204Z,9.88
2022-10-11T08:53:44.876Z,12.00
2022-10-11T08:56:47.315Z,11.15
2022-10-11T08:59:51.747Z,11.40
2022-10-11T09:03:08.547Z,9.70
2022-10-11T09:06:24.240Z,12.70
2022-10-11T09:09:44.672Z,11.23
2022-10-11T09:12:56.783Z,15.30
2022-10-11T09:16:37.643Z,15.45
2022-10-11T09:20:12.466Z,15.07
2022-10-11T09:24:04.474Z,10.15
2022-10-11T09:27:28.977Z,13.45
2022-10-11T09:30:48.013Z,13.70
2022-10-11T09:33:52.248Z,11.75
2022-10-11T09:37:07.097Z,12.20
2022-10-11T09:40:09.873Z,34.33
2022-10-11T09:43:12.418Z,21.83
2022-10-11T09:46:36.967Z,12.40
2022-10-11T09:49:42.837Z,22.25
2022-10-11T09:52:54.171Z,19.20
2022-10-11T09:56:04.577Z,14.10
2022-10-11T09:59:27.610Z,12.63
2022-10-11T10:02:38.441Z,14.45
2022-10-11T10:05:42.523Z,16.02
2022-10-11T10:08:47.206Z,17.92
2022-10-11T10:11:49.869Z,20.52
2022-10-11T10:15:14.245Z,14.03
2022-10-11T10:18:39.065Z,21.83
2022-10-11T10:21:51.049Z,16.92
2022-10-11T10:24:55.829Z,13.55
2022-10-11T10:28:00.857Z,13.62
2022-10-11T10:31:03.545Z,14.07
2022-10-11T10:34:21.179Z,19.30
2022-10-11T10:37:32.334Z,13.45
2022-10-11T10:40:47.850Z,17.35
2022-10-11T10:43:55.717Z,19.20
2022-10-11T10:47:05.846Z,21.05
2022-10-11T10:50:43.288Z,19.02
2022-10-11T10:53:54.084Z,18.67
2022-10-11T10:57:00.924Z,15.15
2022-10-11T11:00:23.271Z,14.45
2022-10-11T11:03:42.504Z,17.73
2022-10-11T11:06:55.294Z,16.17
2022-10-11T11:10:06.994Z,17.45
2022-10-11T11:13:21.437Z,19.35
2022-10-11T11:16:36.022Z,11.93
2022-10-11T11:20:15.685Z,17.60
2022-10-11T11:23:42.505Z,17.20
2022-10-11T11:26:56.218Z,15.85
2022-10-11T11:30:13.778Z,16.95
2022-10-11T11:33:25.096Z,15.82
2022-10-11T11:37:02.458Z,13.93
2022-10-11T11:40:18.144Z,19.40
2022-10-11T11:43:33.855Z,13.27
2022-10-11T11:46:43.887Z,12.60
2022-10-11T11:49:58.056Z,12.88
2022-10-11T11:53:16.413Z,12.50
2022-10-11T11:56:34.422Z,16.37
2022-10-11T11:59:45.627Z,19.10
2022-10-11T12:03:00.278Z,17.15
2022-10-11T12:06:14.993Z,18.15
2022-10-11T12:09:17.175Z,19.15
2022-10-11T12:12:38.241Z,17.00
2022-10-11T12:16:09.863Z,15.68
2022-10-11T12:19:14.782Z,17.08
2022-10-11T12:22:38.472Z,15.32
2022-10-11T12:25:43.479Z,15.50
2022-10-11T12:29:28.481Z,15.73
2022-10-11T12:32:34.613Z,17.12
2022-10-11T12:35:40.104Z,14.32
2022-10-11T12:38:42.833Z,11.10
2022-10-11T12:42:18.350Z,14.68
2022-10-11T12:45:20.800Z,17.15
2022-10-11T12:48:23.288Z,18.83
2022-10-11T12:51:37.297Z,17.10
2022-10-11T12:58:23.758Z,15.52
2022-10-11T13:01:33.217Z,14.65
2022-10-11T13:04:35.792Z,33.13
2022-10-11T13:07:41.416Z,25.02
2022-10-11T13:10:46.260Z,13.43
2022-10-11T13:13:53.242Z,19.67
2022-10-11T13:17:05.103Z,19.70
2022-10-11T13:20:27.787Z,14.63
2022-10-11T13:23:37.806Z,14.25
2022-10-11T13:26:40.673Z,26.48
2022-10-11T13:29:45.136Z,14.18
2022-10-11T13:32:47.830Z,18.83
2022-10-11T13:35:51.265Z,14.57
2022-10-11T13:39:04.259Z,14.52
2022-10-11T13:42:13.799Z,15.30
2022-10-11T13:45:20.283Z,17.67
2022-10-11T13:48:24.477Z,13.40
2022-10-11T13:51:37.272Z,14.57
2022-10-11T13:55:09.090Z,16.27
2022-10-11T13:58:40.542Z,16.83
2022-10-11T14:01:45.357Z,15.25
2022-10-11T14:04:49.042Z,16.95
2022-10-11T14:07:51.350Z,12.48
2022-10-11T14:10:57.797Z,16.73
2022-10-11T14:14:39.934Z,14.07
2022-10-11T14:17:45.196Z,13.88
2022-10-11T14:20:47.531Z,16.02
2022-10-11T14:23:51.960Z,20.50
2022-10-11T14:26:56.263Z,14.77
2022-10-11T14:30:25.122Z,14.65
2022-10-11T14:33:21.430Z,18.65
2022-10-11T14:36:24.025Z,14.60
2022-10-11T14:39:30.680Z,15.77
2022-10-11T14:42:33.368Z,25.25
2022-10-11T14:45:35.648Z,17.83
2022-10-11T14:48:54.299Z,13.55
2022-10-11T14:51:59.489Z,17.65
2022-10-11T14:55:02.260Z,19.87
2022-10-11T14:58:05.639Z,15.18
2022-10-11T15:04:13.876Z,15.18
2022-10-11T15:07:16.416Z,12.73
2022-10-11T15:10:30.155Z,13.95
2022-10-11T15:13:33.031Z,19.02
2022-10-11T15:16:35.994Z,13.60
2022-10-11T15:19:38.568Z,13.00
2022-10-11T15:22:41.112Z,15.48
2022-10-11T15:25:43.760Z,13.90
2022-10-11T15:28:47.350Z,31.90
2022-10-11T15:31:50.447Z,12.98
2022-10-11T15:34:52.649Z,16.13
2022-10-11T15:37:58.428Z,16.12
2022-10-11T15:41:01.128Z,15.88
2022-10-11T15:44:03.722Z,16.30
2022-10-11T15:47:07.893Z,14.87
2022-10-11T15:50:23.325Z,19.20
2022-10-11T15:53:31.091Z,21.62
2022-10-11T15:56:34.209Z,14.85
2022-10-11T15:59:36.507Z,16.10
2022-10-11T16:02:39.627Z,26.02
2022-10-11T16:05:43.618Z,17.05
2022-10-11T16:11:48.427Z,18.27
2022-10-11T16:14:50.979Z,19.17
2022-10-11T16:17:53.600Z,14.40
2022-10-11T16:20:58.392Z,21.30
2022-10-11T16:24:02.251Z,19.42
2022-10-11T16:27:04.696Z,16.98
2022-10-11T16:30:08.327Z,19.98
2022-10-11T16:33:12.736Z,20.05
2022-10-11T16:36:40.186Z,16.45
2022-10-11T16:39:42.595Z,25.73
2022-10-11T16:42:45.481Z,17.65
2022-10-11T16:45:47.708Z,15.52
2022-10-11T16:48:50.522Z,19.73
2022-10-11T16:51:55.337Z,16.83
2022-10-11T16:54:57.964Z,20.33
2022-10-11T16:58:00.289Z,20.50
2022-10-11T17:01:12.781Z,20.48
2022-10-11T17:04:15.711Z,20.95
2022-10-11T17:07:19.703Z,22.00
2022-10-11T17:13:49.352Z,20.27
2022-10-11T17:16:51.583Z,18.95
2022-10-11T17:20:04.443Z,21.67
2022-10-11T17:23:06.714Z,28.75
2022-10-11T17:26:14.142Z,21.05
2022-10-11T17:29:17.294Z,19.00
2022-10-11T17:32:19.941Z,21.87
2022-10-11T17:35:22.230Z,21.85
2022-10-11T17:38:28.778Z,19.33
2022-10-11T17:41:32.387Z,20.62
2022-10-11T17:44:36.078Z,27.52
2022-10-11T17:47:38.325Z,29.30
2022-10-11T17:50:43.397Z,24.63
2022-10-11T17:53:48.577Z,19.98
2022-10-11T17:56:51.241Z,18.65
2022-10-11T17:59:53.448Z,24.63
2022-10-11T18:02:57.348Z,17.73
2022-10-11T18:06:06.558Z,19.37
2022-10-11T18:09:09.016Z,20.05
2022-10-11T18:12:11.550Z,17.85
2022-10-11T18:15:16.147Z,16.85
2022-10-11T18:18:20.194Z,20.05
2022-10-11T18:21:24.364Z,21.67
2022-10-11T18:24:26.856Z,20.30
2022-10-11T18:27:29.096Z,20.70
2022-10-11T18:30:31.672Z,18.95
2022-10-11T18:33:35.745Z,23.15
2022-10-11T18:36:38.693Z,18.20
2022-10-11T18:39:40.907Z,20.62
2022-10-11T18:42:48.795Z,23.23
2022-10-11T18:45:51.005Z,18.67
2022-10-11T18:48:55.245Z,15.60
2022-10-11T18:51:57.452Z,17.90
2022-10-11T18:55:02.762Z,22.35
2022-10-11T18:58:04.992Z,17.83
2022-10-11T19:01:18.282Z,14.82
2022-10-11T19:04:22.337Z,19.33
2022-10-11T19:07:26.058Z,16.77
2022-10-11T19:10:31.409Z,24.02
2022-10-11T19:13:36.134Z,14.02
2022-10-11T19:16:57.040Z,18.77
2022-10-11T19:19:59.600Z,20.05
2022-10-11T19:23:01.831Z,18.12
2022-10-11T19:26:12.984Z,20.33
2022-10-11T19:29:22.055Z,24.12
2022-10-11T19:32:24.570Z,18.70
2022-10-11T19:35:29.363Z,23.95
2022-10-11T19:38:33.844Z,20.67
2022-10-11T19:41:37.224Z,23.95
2022-10-11T19:44:39.942Z,19.95
2022-10-11T19:47:42.681Z,19.25
2022-10-11T19:50:45.335Z,21.25
2022-10-11T19:53:49.963Z,19.87
2022-10-11T19:56:54.584Z,17.92
2022-10-11T19:59:56.878Z,17.85
2022-10-11T20:03:03.944Z,20.40
2022-10-11T20:06:12.094Z,17.37
2022-10-11T20:09:28.972Z,16.95
2022-10-11T20:12:33.339Z,27.02
2022-10-11T20:18:44.081Z,22.98
2022-10-11T20:21:47.711Z,20.12
2022-10-11T20:24:50.632Z,23.58
2022-10-11T20:27:52.908Z,19.00
2022-10-11T20:30:58.865Z,15.85
2022-10-11T20:34:04.195Z,27.58
2022-10-11T20:37:07.197Z,19.33
2022-10-11T20:40:12.533Z,21.48
2022-10-11T20:43:15.524Z,19.20
2022-10-11T20:46:20.752Z,19.95
2022-10-11T20:49:23.217Z,22.50
2022-10-11T20:52:25.651Z,20.02
2022-10-11T20:55:29.532Z,26.05
2022-10-11T20:58:32.082Z,19.40
2022-10-11T21:01:37.752Z,20.55
2022-10-11T21:04:40.043Z,20.80
2022-10-11T21:07:42.495Z,20.85
2022-10-11T21:10:51.816Z,22.33
2022-10-11T21:13:56.304Z,19.42
2022-10-11T21:16:58.600Z,23.25
2022-10-11T21:20:03.612Z,22.98
2022-10-11T21:23:05.915Z,17.00
2022-10-11T21:26:11.905Z,17.25
2022-10-11T21:29:14.213Z,20.27
2022-10-11T21:32:16.810Z,21.15
2022-10-11T21:35:19.296Z,19.45
2022-10-11T21:41:26.792Z,17.05
2022-10-11T21:44:32.379Z,19.27
2022-10-11T21:47:38.860Z,19.55
2022-10-11T21:50:41.736Z,19.45
2022-10-11T21:53:44.031Z,19.48
2022-10-11T21:56:46.706Z,20.92
2022-10-11T21:59:48.919Z,22.23
2022-10-11T22:02:54.708Z,21.95
2022-10-11T22:05:57.348Z,19.75
2022-10-11T22:09:00.581Z,22.00
2022-10-11T22:12:04.108Z,20.05
2022-10-11T22:15:07.009Z,21.20
2022-10-11T22:18:09.460Z,18.42
2022-10-11T22:21:17.601Z,24.23
2022-10-11T22:24:20.169Z,26.08
2022-10-11T22:27:22.390Z,19.85
2022-10-11T22:30:24.872Z,21.75
2022-10-11T22:33:27.134Z,19.27
2022-10-11T22:36:36.217Z,21.20
2022-10-11T22:39:38.428Z,17.95
2022-10-11T22:42:40.960Z,19.60
2022-10-11T22:45:43.307Z,22.33
2022-10-11T22:48:45.834Z,19.73
2022-10-11T22:51:49.463Z,18.98
2022-10-11T22:57:54.622Z,21.17
2022-10-11T23:00:57.128Z,22.67
2022-10-11T23:03:59.592Z,23.20
2022-10-11T23:07:04.937Z,21.37
2022-10-11T23:10:08.221Z,17.17
2022-10-11T23:13:10.652Z,18.77
2022-10-11T23:16:13.705Z,18.10
2022-10-11T23:19:16.330Z,19.77
2022-10-11T23:22:19.108Z,20.50
2022-10-11T23:25:21.813Z,20.95
2022-10-11T23:28:24.143Z,17.77
2022-10-11T23:31:27.120Z,18.90
2022-10-11T23:34:29.336Z,17.00
2022-10-11T23:37:31.830Z,19.25
2022-10-11T23:40:34.086Z,19.15
2022-10-11T23:43:36.604Z,18.62
2022-10-11T23:46:38.835Z,22.52
2022-10-11T23:49:41.319Z,20.67
2022-10-11T23:52:43.593Z,18.20
2022-10-11T23:55:46.101Z,16.33
2022-10-11T23:58:48.528Z,18.80
